Time;durP1;ratioP1;P1;durP2;ratioP2;P2;SDS_P1;SDS_P2;PMS_P1;PMS_P2;Temp;Humidity;BMP_temperature;BMP_pressure;BME280_temperature;BME280_humidity;BME280_pressure;Samples;Min_cycle;Max_cycle;Signal;HPM_P1;HPM_P2
2023/03/19 00:00:17;;;;;;;27.73;13.20;;;;;;;4.94;50.41;100325.41;3157104;28;20056;-78
2023/03/19 00:01:48;;;;;;;29.27;13.40;;;;;;;4.93;50.68;100328.00;3165163;28;20101;-77
2023/03/19 00:03:22;;;;;;;33.03;12.50;;;;;;;4.83;50.53;100305.78;3164952;28;20059;-77
2023/03/19 00:04:54;;;;;;;27.70;12.35;;;;;;;4.28;50.64;100225.66;3164566;28;20048;-76
2023/03/19 00:06:26;;;;;;;32.53;12.68;;;;;;;4.85;50.89;100322.06;3162324;28;20217;-76
2023/03/19 00:07:58;;;;;;;26.00;12.63;;;;;;;4.63;50.99;100299.16;3160856;28;20051;-79
2023/03/19 00:09:30;;;;;;;28.73;13.00;;;;;;;4.25;50.99;100236.00;3162442;28;20066;-76
2023/03/19 00:11:05;;;;;;;27.08;12.52;;;;;;;4.69;51.06;100311.97;3164707;28;20055;-76
2023/03/19 00:12:37;;;;;;;30.42;12.10;;;;;;;4.60;50.93;100294.03;3159182;28;20056;-75
2023/03/19 00:14:09;;;;;;;32.92;13.13;;;;;;;4.84;51.09;100328.13;3164970;28;20747;-75
2023/03/19 00:15:41;;;;;;;27.38;10.98;;;;;;;4.58;51.10;100288.03;3152173;28;20504;-76
2023/03/19 00:17:13;;;;;;;25.88;10.43;;;;;;;4.82;51.09;100319.53;3165091;28;20075;-77
2023/03/19 00:18:46;;;;;;;23.80;10.75;;;;;;;4.13;51.17;100204.38;3164971;28;20055;-78
2023/03/19 00:20:19;;;;;;;24.85;10.70;;;;;;;4.79;51.19;100321.31;3157756;28;20522;-77
2023/03/19 00:21:51;;;;;;;23.55;10.57;;;;;;;4.70;51.14;100305.94;3164408;28;20425;-76
2023/03/19 00:23:23;;;;;;;23.88;9.65;;;;;;;4.78;51.17;100313.56;3164821;28;20104;-76
2023/03/19 00:24:55;;;;;;;21.58;9.98;;;;;;;4.79;51.21;100315.25;3164842;28;20051;-76
2023/03/19 00:26:27;;;;;;;24.92;9.38;;;;;;;4.66;51.29;100293.09;3164424;28;20055;-75
2023/03/19 00:27:59;;;;;;;17.88;8.82;;;;;;;4.56;51.33;100284.63;3164378;28;20435;-76
2023/03/19 00:29:31;;;;;;;26.48;10.23;;;;;;;4.22;51.37;100236.03;3162136;28;20048;-76
2023/03/19 00:31:11;;;;;;;17.83;8.77;;;;;;;4.53;51.57;100282.09;3157845;28;20129;-77
2023/03/19 00:32:43;;;;;;;21.20;8.93;;;;;;;4.65;51.73;100304.28;3164685;28;20063;-76
2023/03/19 00:34:18;;;;;;;18.45;8.52;;;;;;;4.60;51.92;100309.50;3164279;28;20298;-75
2023/03/19 00:35:48;;;;;;;20.90;9.13;;;;;;;4.55;51.93;100298.38;3164937;28;20135;-75
2023/03/19 00:37:20;;;;;;;20.52;8.70;;;;;;;4.42;52.02;100284.78;3164576;27;20734;-76
2023/03/19 00:38:51;;;;;;;19.75;7.97;;;;;;;4.46;52.30;100295.91;3164393;28;20401;-76
2023/03/19 00:40:24;;;;;;;18.70;8.57;;;;;;;4.42;52.28;100299.41;3164321;28;20581;-75
2023/03/19 00:41:56;;;;;;;19.27;8.85;;;;;;;4.22;52.35;100272.13;3164342;28;20047;-76
2023/03/19 00:43:27;;;;;;;25.58;8.40;;;;;;;4.37;52.53;100299.47;3164057;28;20044;-75
2023/03/19 00:44:59;;;;;;;23.15;9.07;;;;;;;4.20;52.64;100262.69;3158553;28;20149;-76
2023/03/19 00:46:30;;;;;;;20.02;8.38;;;;;;;4.34;52.59;100294.34;3164464;28;20051;-76
2023/03/19 00:48:01;;;;;;;19.40;7.88;;;;;;;3.17;52.66;100105.00;3164111;28;20097;-75
2023/03/19 00:49:35;;;;;;;19.50;8.32;;;;;;;4.28;52.64;100289.25;3164278;28;20136;-76
2023/03/19 00:51:09;;;;;;;19.10;7.93;;;;;;;4.25;52.66;100290.13;3164087;28;20629;-76
2023/03/19 00:52:41;;;;;;;16.77;7.78;;;;;;;3.77;52.79;100214.25;3164277;28;20074;-76
2023/03/19 00:54:28;;;;;;;19.60;8.60;;;;;;;4.18;52.80;100278.19;3164415;28;20176;-76
2023/03/19 00:55:59;;;;;;;16.20;8.10;;;;;;;4.16;52.92;100284.25;3165986;28;20442;-76
2023/03/19 00:57:31;;;;;;;21.48;9.00;;;;;;;3.92;52.91;100244.97;3168904;28;20122;-76
2023/03/19 00:59:03;;;;;;;16.98;8.05;;;;;;;4.12;53.07;100280.00;3169561;28;20048;-76
2023/03/19 01:00:35;;;;;;;19.48;8.63;;;;;;;3.36;52.97;100149.41;3166130;28;20132;-76
2023/03/19 01:02:07;;;;;;;18.27;8.45;;;;;;;3.93;53.05;100253.56;3169138;28;20046;-76
2023/03/19 01:03:37;;;;;;;17.45;7.88;;;;;;;3.65;53.21;100207.50;3169186;28;20048;-78
2023/03/19 01:05:11;;;;;;;18.52;8.57;;;;;;;3.92;53.23;100254.44;3168805;27;20704;-76
2023/03/19 01:06:43;;;;;;;19.30;8.68;;;;;;;4.07;53.24;100277.47;3167075;28;20577;-77
2023/03/19 01:08:15;;;;;;;26.38;8.90;;;;;;;3.82;53.34;100243.38;3167399;28;20047;-77
2023/03/19 01:09:46;;;;;;;20.25;8.25;;;;;;;3.88;53.33;100251.06;3169332;28;20131;-77
2023/03/19 01:11:18;;;;;;;17.40;8.25;;;;;;;3.93;53.44;100269.03;3168878;28;20079;-77
2023/03/19 01:12:50;;;;;;;18.85;8.18;;;;;;;3.92;53.42;100263.03;3167952;28;20121;-77
2023/03/19 01:14:22;;;;;;;23.48;8.52;;;;;;;3.98;53.39;100275.84;3163973;27;20044;-79
2023/03/19 01:15:53;;;;;;;21.42;8.63;;;;;;;3.97;53.49;100281.03;3162384;28;20128;-77
2023/03/19 01:17:25;;;;;;;20.45;8.80;;;;;;;3.30;53.31;100171.78;3169108;28;20104;-77
2023/03/19 01:18:57;;;;;;;23.08;9.07;;;;;;;3.93;53.58;100271.59;3168643;28;20048;-76
2023/03/19 01:20:31;;;;;;;19.40;8.73;;;;;;;3.93;53.57;100272.44;3168818;28;20043;-76
2023/03/19 01:22:03;;;;;;;20.92;8.60;;;;;;;3.92;53.53;100272.47;3168540;28;20078;-76
2023/03/19 01:23:35;;;;;;;24.17;9.07;;;;;;;3.84;53.59;100259.66;3169068;28;20077;-76
2023/03/19 01:25:06;;;;;;;19.80;8.98;;;;;;;3.80;53.62;100253.69;3169285;27;20047;-77
2023/03/19 01:26:38;;;;;;;20.63;9.07;;;;;;;3.80;53.67;100258.00;3167913;28;20144;-75
2023/03/19 01:28:10;;;;;;;19.20;8.93;;;;;;;3.90;53.62;100277.63;3168464;28;20447;-76
2023/03/19 01:29:42;;;;;;;19.83;8.60;;;;;;;3.89;53.62;100275.94;3164944;28;20052;-77
2023/03/19 01:31:14;;;;;;;22.27;10.07;;;;;;;3.78;53.86;100259.72;3168498;28;20051;-77
2023/03/19 01:32:48;;;;;;;25.38;9.60;;;;;;;3.86;53.97;100275.97;3169200;28;20051;-78
2023/03/19 01:34:21;;;;;;;25.08;10.00;;;;;;;3.55;53.96;100229.91;3157139;28;20052;-77
2023/03/19 01:35:56;;;;;;;24.50;9.75;;;;;;;3.63;53.96;100240.13;3166241;28;20054;-77
2023/03/19 01:37:28;;;;;;;21.00;9.48;;;;;;;3.83;53.95;100282.00;3169053;28;20054;-78
2023/03/19 01:39:00;;;;;;;21.92;8.57;;;;;;;3.85;53.89;100277.69;3168959;28;20114;-79
2023/03/19 01:40:32;;;;;;;23.95;9.20;;;;;;;3.86;53.91;100279.41;3168465;28;20069;-79
2023/03/19 01:42:05;;;;;;;22.13;9.68;;;;;;;3.28;53.87;100184.66;3168473;28;20170;-78
2023/03/19 01:43:37;;;;;;;22.63;9.50;;;;;;;3.88;54.01;100276.81;3168439;28;20062;-78
2023/03/19 01:45:29;;;;;;;20.45;9.55;;;;;;;3.75;53.80;100258.03;3167286;28;20051;-77
2023/03/19 01:47:06;;;;;;;21.90;9.20;;;;;;;3.92;53.80;100269.91;3168467;28;20058;-77
2023/03/19 01:48:41;;;;;;;20.00;9.10;;;;;;;3.92;53.77;100275.91;3167952;28;20213;-77
2023/03/19 01:50:21;;;;;;;22.85;9.45;;;;;;;3.79;53.87;100252.00;3168619;28;20059;-78
2023/03/19 01:51:55;;;;;;;22.60;9.57;;;;;;;3.94;53.83;100279.31;3168685;28;20100;-78
2023/03/19 01:53:33;;;;;;;20.13;8.73;;;;;;;3.94;53.94;100279.31;3168523;28;20124;-78
2023/03/19 01:55:07;;;;;;;22.58;8.57;;;;;;;3.83;54.03;100266.53;3168882;28;20047;-78
2023/03/19 01:56:42;;;;;;;19.38;9.25;;;;;;;3.81;53.93;100270.84;3168297;28;20055;-77
2023/03/19 01:58:14;;;;;;;18.98;8.95;;;;;;;3.86;54.02;100278.53;3168265;28;20478;-77
2023/03/19 01:59:50;;;;;;;20.42;8.18;;;;;;;3.83;54.27;100276.84;3163917;28;20036;-77
2023/03/19 02:01:22;;;;;;;17.67;8.48;;;;;;;3.81;54.20;100275.16;3162674;28;20040;-77
2023/03/19 02:03:01;;;;;;;18.75;8.95;;;;;;;3.67;54.37;100262.44;3168557;28;21001;-77
2023/03/19 02:04:34;;;;;;;20.20;9.48;;;;;;;3.62;54.51;100262.47;3168117;28;20075;-77
2023/03/19 02:06:07;;;;;;;23.88;9.60;;;;;;;3.63;54.62;100276.19;3167666;28;20204;-77
2023/03/19 02:07:44;;;;;;;26.20;9.55;;;;;;;3.72;54.47;100283.81;3168381;28;20150;-77
2023/03/19 02:09:17;;;;;;;24.30;9.85;;;;;;;3.69;54.50;100294.16;3168526;28;20048;-78
2023/03/19 02:10:52;;;;;;;16.38;8.20;;;;;;;3.71;54.53;100289.84;3167765;28;20138;-76
2023/03/19 02:12:23;;;;;;;22.27;9.60;;;;;;;3.60;54.51;100265.91;3168245;28;20134;-77
2023/03/19 02:13:55;;;;;;;19.77;8.65;;;;;;;3.77;54.39;100294.09;3168171;28;21400;-77
2023/03/19 02:15:26;;;;;;;23.35;9.57;;;;;;;3.79;54.57;100292.38;3160365;28;20055;-79
2023/03/19 02:16:59;;;;;;;19.48;9.05;;;;;;;3.73;54.33;100277.81;3168568;28;20067;-77
2023/03/19 02:18:31;;;;;;;20.33;8.67;;;;;;;3.80;54.40;100287.19;3167885;28;20146;-77
2023/03/19 02:20:08;;;;;;;20.67;9.27;;;;;;;3.84;54.37;100293.16;3168103;28;20138;-77
2023/03/19 02:21:40;;;;;;;16.67;8.40;;;;;;;3.84;54.40;100299.16;3156125;28;20082;-77
2023/03/19 02:23:25;;;;;;;17.10;7.55;;;;;;;3.85;54.22;100295.72;3168668;28;20052;-77
2023/03/19 02:25:01;;;;;;;17.27;8.07;;;;;;;3.86;54.26;100301.75;3168434;28;20393;-78
2023/03/19 02:26:36;;;;;;;17.38;7.80;;;;;;;3.82;54.19;100292.34;3167576;28;20160;-79
2023/03/19 02:28:09;;;;;;;16.30;7.88;;;;;;;3.64;54.06;100253.00;3168258;28;20047;-78
2023/03/19 02:29:41;;;;;;;19.77;7.13;;;;;;;3.95;54.14;100304.22;3155727;28;20056;-78
2023/03/19 02:31:14;;;;;;;14.52;7.40;;;;;;;3.92;53.94;100298.25;3168143;28;20051;-78
2023/03/19 02:32:46;;;;;;;23.15;8.40;;;;;;;3.94;53.76;100294.78;3167664;28;20051;-75
2023/03/19 02:34:36;;;;;;;14.23;6.90;;;;;;;3.90;53.66;100280.22;3168523;28;20052;-76
2023/03/19 02:36:15;;;;;;;16.40;7.65;;;;;;;4.11;53.60;100312.63;3167913;28;20047;-77
2023/03/19 02:37:45;;;;;;;17.77;7.55;;;;;;;4.14;53.55;100317.78;3168496;28;20104;-77
2023/03/19 02:39:22;;;;;;;19.15;8.10;;;;;;;4.17;53.46;100319.44;3168263;28;20189;-77
2023/03/19 02:41:00;;;;;;;11.77;6.50;;;;;;;3.37;53.13;100187.19;3167808;28;20052;-76
2023/03/19 02:42:34;;;;;;;14.20;6.72;;;;;;;4.23;53.29;100324.53;3162460;28;20466;-76
2023/03/19 02:44:07;;;;;;;15.63;7.15;;;;;;;4.13;53.23;100303.16;3166955;28;20056;-76
2023/03/19 02:45:39;;;;;;;18.80;7.40;;;;;;;4.27;53.13;100321.91;3166530;28;20060;-77
2023/03/19 02:47:10;;;;;;;16.13;7.47;;;;;;;4.25;53.26;100325.38;3168873;28;20047;-76
2023/03/19 02:48:42;;;;;;;16.63;7.43;;;;;;;4.24;53.10;100324.53;3168086;28;20044;-76
2023/03/19 02:50:14;;;;;;;15.73;7.45;;;;;;;4.18;53.14;100313.44;3168425;28;20052;-76
2023/03/19 02:51:45;;;;;;;17.90;7.25;;;;;;;4.26;53.14;100324.50;3168479;28;20079;-76
2023/03/19 02:53:17;;;;;;;13.95;7.43;;;;;;;4.27;53.18;100321.91;3168358;28;20052;-75
2023/03/19 02:54:49;;;;;;;14.63;6.90;;;;;;;4.27;53.06;100313.34;3167818;28;20078;-76
2023/03/19 02:56:25;;;;;;;13.80;6.82;;;;;;;4.16;53.03;100297.97;3168368;28;20046;-76
2023/03/19 02:57:58;;;;;;;17.05;7.13;;;;;;;4.27;53.13;100319.34;3167579;28;20055;-76
2023/03/19 02:59:29;;;;;;;15.07;7.22;;;;;;;4.27;53.11;100316.75;3166165;28;20070;-76
2023/03/19 03:01:01;;;;;;;15.02;6.82;;;;;;;4.05;53.27;100276.63;3159566;28;20047;-77
2023/03/19 03:02:33;;;;;;;15.30;6.95;;;;;;;3.60;53.06;100212.69;3167839;28;20044;-78
2023/03/19 03:04:05;;;;;;;14.60;6.50;;;;;;;4.28;53.13;100312.47;3166153;28;20050;-78
2023/03/19 03:05:36;;;;;;;13.38;6.20;;;;;;;4.28;53.11;100318.47;3165504;28;20043;-76
2023/03/19 03:07:08;;;;;;;13.38;6.63;;;;;;;4.21;53.03;100296.22;3164125;28;20100;-78
2023/03/19 03:08:40;;;;;;;22.48;6.55;;;;;;;4.28;53.10;100310.72;3167845;28;20091;-76
2023/03/19 03:10:12;;;;;;;16.02;6.07;;;;;;;4.19;52.83;100291.94;3167905;28;20052;-74
2023/03/19 03:11:44;;;;;;;16.20;5.90;;;;;;;4.31;52.86;100315.84;3168048;28;20510;-74
2023/03/19 03:13:18;;;;;;;15.25;5.82;;;;;;;4.30;52.73;100315.88;3168474;28;20047;-74
2023/03/19 03:14:50;;;;;;;13.07;5.95;;;;;;;4.28;52.63;100315.88;3162933;28;20132;-75
2023/03/19 03:16:21;;;;;;;14.38;6.70;;;;;;;4.19;52.56;100300.53;3165571;28;20062;-75
2023/03/19 03:17:55;;;;;;;13.95;5.80;;;;;;;4.28;52.64;100317.63;3168285;28;20511;-74
2023/03/19 03:19:27;;;;;;;12.50;6.15;;;;;;;4.19;52.52;100308.25;3170609;28;20043;-74
2023/03/19 03:20:58;;;;;;;15.00;5.78;;;;;;;4.14;52.49;100297.16;3170363;28;20051;-75
2023/03/19 03:22:30;;;;;;;13.07;5.25;;;;;;;4.27;52.37;100321.91;3170459;28;20385;-75
2023/03/19 03:24:02;;;;;;;11.35;5.32;;;;;;;4.28;52.36;100318.47;3170536;27;20146;-75
2023/03/19 03:25:34;;;;;;;11.60;6.07;;;;;;;4.28;52.44;100322.78;3169673;28;20039;-74
2023/03/19 03:27:07;;;;;;;20.27;6.60;;;;;;;4.28;52.42;100323.63;3170573;28;20047;-74
2023/03/19 03:28:40;;;;;;;14.45;5.88;;;;;;;4.29;52.21;100333.09;3170243;28;20047;-74
2023/03/19 03:30:12;;;;;;;12.93;6.43;;;;;;;4.28;52.27;100325.34;3165683;28;20051;-74
2023/03/19 03:31:44;;;;;;;17.20;6.00;;;;;;;4.28;52.34;100326.19;3170096;28;20044;-75
2023/03/19 03:33:16;;;;;;;13.10;5.88;;;;;;;4.15;52.43;100301.44;3168172;28;20476;-75
2023/03/19 03:34:48;;;;;;;15.70;6.18;;;;;;;3.77;52.15;100243.44;3158917;28;20060;-76
2023/03/19 03:36:19;;;;;;;15.52;5.40;;;;;;;4.27;52.34;100332.22;3170080;28;20548;-76
2023/03/19 03:37:51;;;;;;;15.48;6.82;;;;;;;4.16;52.30;100308.28;3170367;28;20524;-77
2023/03/19 03:39:22;;;;;;;11.70;6.00;;;;;;;3.99;52.28;100279.25;3169530;28;20561;-76
2023/03/19 03:40:54;;;;;;;15.20;7.03;;;;;;;4.22;52.13;100318.53;3170180;28;20190;-77
2023/03/19 03:42:26;;;;;;;15.32;7.53;;;;;;;4.30;52.22;100324.47;3170035;28;20507;-76
2023/03/19 03:44:00;;;;;;;11.40;6.38;;;;;;;4.29;52.19;100322.78;3170081;28;20664;-76
2023/03/19 03:45:32;;;;;;;;;;;;;;;4.27;52.26;100331.38;3169911;28;20248;-77
2023/03/19 03:47:04;;;;;;;16.25;6.40;;;;;;;4.04;52.25;100296.38;3169815;28;20007;-77
2023/03/19 03:48:35;;;;;;;14.30;6.40;;;;;;;4.21;52.24;100318.56;3169676;28;20056;-76
2023/03/19 03:50:09;;;;;;;16.02;6.32;;;;;;;4.28;52.33;100327.94;3170092;28;20055;-77
2023/03/19 03:51:41;;;;;;;13.50;6.53;;;;;;;4.30;52.21;100341.66;3170112;28;20116;-76
2023/03/19 03:53:14;;;;;;;14.05;6.10;;;;;;;4.31;52.21;100335.63;3170313;28;20407;-76
2023/03/19 03:54:46;;;;;;;12.77;6.68;;;;;;;3.96;52.15;100272.41;3169257;28;20417;-77
2023/03/19 03:56:18;;;;;;;13.00;5.93;;;;;;;4.26;52.18;100320.22;3170079;28;20714;-77
2023/03/19 03:57:49;;;;;;;12.70;6.22;;;;;;;4.19;52.21;100313.41;3170069;28;20108;-77
2023/03/19 03:59:24;;;;;;;15.68;6.90;;;;;;;4.36;52.13;100341.59;3168733;28;20116;-77
2023/03/19 04:00:54;;;;;;;12.88;6.35;;;;;;;4.27;52.26;100332.22;3160503;28;20056;-77
2023/03/19 04:02:27;;;;;;;14.23;6.75;;;;;;;4.36;52.14;100346.75;3169012;28;20800;-76
2023/03/19 04:03:59;;;;;;;16.40;6.55;;;;;;;4.37;52.24;100343.28;3170155;28;20048;-77
2023/03/19 04:05:31;;;;;;;17.38;6.47;;;;;;;4.39;52.08;100343.28;3169582;28;20100;-77
2023/03/19 04:07:03;;;;;;;13.65;6.22;;;;;;;4.39;52.08;100345.88;3169586;28;20052;-77
2023/03/19 04:08:35;;;;;;;13.23;6.15;;;;;;;4.39;52.17;100343.28;3169745;28;20138;-76
2023/03/19 04:10:08;;;;;;;13.85;6.28;;;;;;;4.38;52.04;100344.13;3169485;28;20389;-78
2023/03/19 04:11:41;;;;;;;14.80;5.60;;;;;;;4.23;52.13;100324.53;3169497;28;20562;-76
2023/03/19 04:13:12;;;;;;;14.13;6.25;;;;;;;4.38;52.20;100338.97;3169991;28;20052;-76
2023/03/19 04:14:46;;;;;;;13.00;6.00;;;;;;;4.37;52.19;100345.88;3165291;28;20170;-76
2023/03/19 04:16:18;;;;;;;16.02;5.93;;;;;;;4.22;52.03;100323.69;3166450;28;20683;-75
2023/03/19 04:17:49;;;;;;;13.82;6.47;;;;;;;4.08;52.10;100290.34;3169822;28;20063;-74
2023/03/19 04:19:21;;;;;;;12.90;6.32;;;;;;;4.40;52.17;100352.72;3169746;28;20047;-76
2023/03/19 04:20:53;;;;;;;14.35;6.05;;;;;;;4.21;52.20;100316.84;3169609;28;20047;-75
2023/03/19 04:22:26;;;;;;;12.23;5.85;;;;;;;3.42;52.03;100185.41;3169932;28;20051;-77
2023/03/19 04:23:58;;;;;;;14.90;6.40;;;;;;;4.40;52.12;100348.41;3168537;28;20047;-78
2023/03/19 04:25:30;;;;;;;14.27;6.22;;;;;;;4.40;52.05;100345.84;3169666;28;20047;-77
2023/03/19 04:27:02;;;;;;;11.15;6.03;;;;;;;4.13;52.28;100295.44;3170056;28;20478;-76
2023/03/19 04:28:34;;;;;;;14.90;6.45;;;;;;;4.39;52.25;100340.72;3169057;28;20456;-76
2023/03/19 04:30:10;;;;;;;14.00;6.53;;;;;;;4.39;52.14;100343.28;3165039;28;20097;-76
2023/03/19 04:31:42;;;;;;;10.20;5.63;;;;;;;4.27;52.19;100334.81;3169291;28;20142;-76
2023/03/19 04:33:13;;;;;;;13.90;6.82;;;;;;;4.05;52.29;100294.66;3168017;28;20096;-77
2023/03/19 04:34:45;;;;;;;14.60;6.32;;;;;;;4.38;52.33;100354.47;3157392;28;20048;-76
2023/03/19 04:36:17;;;;;;;14.73;6.38;;;;;;;4.23;52.40;100335.72;3168846;28;20043;-76
2023/03/19 04:37:49;;;;;;;16.88;6.93;;;;;;;4.38;52.36;100354.47;3169460;28;20063;-76
2023/03/19 04:39:21;;;;;;;11.85;5.97;;;;;;;4.28;52.36;100343.41;3169313;28;20048;-76
2023/03/19 04:40:53;;;;;;;15.88;6.07;;;;;;;4.37;52.34;100352.75;3169619;28;20051;-76
2023/03/19 04:42:25;;;;;;;14.75;7.15;;;;;;;4.32;52.30;100342.50;3169386;28;20055;-76
2023/03/19 04:43:57;;;;;;;14.80;6.25;;;;;;;4.13;52.25;100308.31;3169366;28;20504;-76
2023/03/19 04:45:30;;;;;;;13.57;6.18;;;;;;;4.39;52.25;100345.88;3168461;28;20047;-76
2023/03/19 04:47:02;;;;;;;14.05;6.65;;;;;;;4.29;52.37;100333.09;3168515;28;20453;-75
2023/03/19 04:48:34;;;;;;;15.05;6.13;;;;;;;4.37;52.21;100340.72;3169211;28;20039;-76
2023/03/19 04:50:08;;;;;;;12.93;6.25;;;;;;;4.08;52.17;100292.94;3169100;28;20136;-76
2023/03/19 04:51:40;;;;;;;15.40;7.07;;;;;;;4.37;52.21;100342.44;3169230;28;20055;-76
2023/03/19 04:53:12;;;;;;;13.17;6.13;;;;;;;4.08;52.27;100302.34;3169101;28;20054;-76
2023/03/19 04:54:44;;;;;;;11.98;6.22;;;;;;;4.31;52.22;100339.06;3166987;28;20047;-77
2023/03/19 04:56:16;;;;;;;13.25;5.85;;;;;;;4.36;52.14;100351.06;3161422;28;20051;-76
2023/03/19 04:57:49;;;;;;;16.73;6.20;;;;;;;4.28;52.13;100336.50;3168782;28;20500;-76
2023/03/19 04:59:21;;;;;;;15.65;6.40;;;;;;;4.38;52.28;100344.13;3168303;28;20108;-77
2023/03/19 05:00:54;;;;;;;15.85;6.55;;;;;;;4.37;52.25;100347.59;3159082;28;20068;-76
2023/03/19 05:02:26;;;;;;;13.88;6.78;;;;;;;4.27;52.26;100334.81;3169009;28;20629;-76
2023/03/19 05:03:59;;;;;;;16.55;6.45;;;;;;;3.44;52.16;100198.25;3169071;28;20054;-76
2023/03/19 05:05:30;;;;;;;18.00;6.35;;;;;;;4.40;52.15;100360.47;3168847;28;20052;-76
2023/03/19 05:07:02;;;;;;;19.73;7.15;;;;;;;4.22;52.12;100328.84;3169088;28;20401;-76
2023/03/19 05:08:34;;;;;;;16.92;6.90;;;;;;;4.41;52.21;100365.63;3169077;28;20056;-76
2023/03/19 05:10:07;;;;;;;17.50;6.47;;;;;;;4.43;52.16;100360.44;3168881;28;20044;-76
2023/03/19 05:11:39;;;;;;;15.10;6.20;;;;;;;4.38;52.12;100364.78;3169413;28;20528;-76
2023/03/19 05:13:11;;;;;;;12.27;5.88;;;;;;;4.45;51.95;100369.84;3169234;28;20079;-76
2023/03/19 05:14:43;;;;;;;14.48;7.10;;;;;;;4.40;51.87;100371.63;3165337;28;20044;-76
2023/03/19 05:16:16;;;;;;;14.63;5.82;;;;;;;4.42;51.86;100374.19;3168461;28;20092;-77
2023/03/19 05:17:47;;;;;;;14.77;6.35;;;;;;;4.49;51.77;100378.41;3169126;28;20501;-77
2023/03/19 05:19:19;;;;;;;19.15;7.07;;;;;;;4.50;51.87;100387.88;3169031;28;20050;-76
2023/03/19 05:20:52;;;;;;;15.10;6.70;;;;;;;4.51;51.73;100381.84;3169283;28;20054;-77
2023/03/19 05:22:23;;;;;;;19.80;6.23;;;;;;;4.52;51.79;100383.53;3168636;28;20055;-77
2023/03/19 05:23:56;;;;;;;14.90;6.15;;;;;;;4.54;51.62;100379.22;3168421;28;20059;-77
2023/03/19 05:25:27;;;;;;;11.38;5.70;;;;;;;4.45;51.53;100366.44;3168858;27;20044;-77
2023/03/19 05:26:59;;;;;;;15.52;6.60;;;;;;;4.55;51.56;100374.06;3169125;28;20048;-77
2023/03/19 05:28:31;;;;;;;14.85;7.20;;;;;;;4.39;51.62;100345.88;3168840;28;20120;-77
2023/03/19 05:30:04;;;;;;;15.90;6.40;;;;;;;4.60;51.67;100371.41;3163761;28;20052;-78
2023/03/19 05:31:38;;;;;;;15.20;6.93;;;;;;;4.46;51.65;100345.75;3168734;28;20723;-78
2023/03/19 05:33:10;;;;;;;15.63;6.80;;;;;;;4.36;51.66;100335.59;3168858;28;20846;-77
2023/03/19 05:34:42;;;;;;;16.65;6.72;;;;;;;4.29;51.55;100319.34;3168594;28;20536;-77
2023/03/19 05:36:14;;;;;;;15.65;7.47;;;;;;;4.62;51.49;100364.50;3168721;28;20047;-77
2023/03/19 05:37:46;;;;;;;15.95;6.78;;;;;;;4.73;51.44;100373.00;3168162;28;20144;-78
2023/03/19 05:39:18;;;;;;;12.13;5.70;;;;;;;4.75;51.38;100372.94;3168897;28;20054;-77
2023/03/19 05:40:49;;;;;;;14.88;6.07;;;;;;;4.78;51.35;100375.50;3168159;28;20047;-78
2023/03/19 05:42:21;;;;;;;13.75;5.40;;;;;;;4.65;51.28;100351.59;3168998;28;20054;-77
2023/03/19 05:43:53;;;;;;;12.05;5.60;;;;;;;4.67;51.10;100362.72;3168569;28;20507;-77
2023/03/19 05:45:25;;;;;;;15.50;5.78;;;;;;;4.71;51.16;100361.81;3166581;28;20124;-77
2023/03/19 05:46:58;;;;;;;15.82;5.22;;;;;;;4.44;50.98;100313.16;3168761;28;20063;-78
2023/03/19 05:48:30;;;;;;;8.50;4.68;;;;;;;4.87;51.02;100384.84;3168469;28;20047;-78
2023/03/19 05:50:02;;;;;;;12.10;4.43;;;;;;;4.96;50.80;100395.06;3162621;28;20082;-77
2023/03/19 05:51:34;;;;;;;9.82;4.65;;;;;;;4.87;50.74;100379.69;3168331;28;20039;-77
2023/03/19 05:53:06;;;;;;;14.65;4.03;;;;;;;4.98;50.74;100394.16;3168084;28;20051;-76
2023/03/19 05:54:37;;;;;;;11.43;5.03;;;;;;;4.81;50.68;100356.53;3168259;28;20112;-76
2023/03/19 05:56:09;;;;;;;9.02;4.35;;;;;;;5.08;50.49;100394.03;3168684;28;20054;-76
2023/03/19 05:57:41;;;;;;;8.77;4.57;;;;;;;5.07;50.47;100382.88;3168454;28;20043;-76
2023/03/19 05:59:12;;;;;;;8.90;4.20;;;;;;;5.08;50.29;100397.47;3168693;28;20039;-76
2023/03/19 06:00:44;;;;;;;11.73;4.43;;;;;;;5.19;50.40;100400.78;3156988;28;20048;-76
2023/03/19 06:02:18;;;;;;;9.60;3.85;;;;;;;5.25;50.08;100410.16;3168301;28;20055;-77
2023/03/19 06:03:49;;;;;;;;;;;;;;;5.24;50.12;100405.88;3168517;28;20055;-77
2023/03/19 06:05:22;;;;;;;9.30;3.72;;;;;;;5.17;49.96;100405.09;3168403;28;19939;-77
2023/03/19 06:06:53;;;;;;;11.02;4.32;;;;;;;5.27;50.01;100411.00;3165231;28;20051;-77
2023/03/19 06:08:25;;;;;;;7.35;4.07;;;;;;;4.88;49.88;100346.13;3166757;28;20494;-77
2023/03/19 06:09:57;;;;;;;10.00;4.00;;;;;;;5.32;49.93;100408.34;3168228;28;20122;-77
2023/03/19 06:11:29;;;;;;;9.27;4.15;;;;;;;5.23;49.93;100389.53;3168530;28;20490;-77
2023/03/19 06:13:01;;;;;;;8.35;4.32;;;;;;;5.47;49.77;100411.59;3168705;28;20505;-77
2023/03/19 06:14:33;;;;;;;11.63;4.22;;;;;;;5.46;49.67;100396.09;3165038;28;20052;-77
2023/03/19 06:16:06;;;;;;;10.57;5.18;;;;;;;5.59;49.60;100412.25;3163353;28;20121;-77
2023/03/19 06:17:38;;;;;;;8.55;5.13;;;;;;;5.66;49.63;100419.06;3168426;28;20112;-76
2023/03/19 06:19:10;;;;;;;13.45;5.28;;;;;;;4.90;49.44;100286.75;3168441;28;20052;-75
2023/03/19 06:20:42;;;;;;;11.57;4.80;;;;;;;5.28;49.15;100334.38;3168572;28;20059;-78
2023/03/19 06:22:14;;;;;;;12.48;5.03;;;;;;;5.85;49.32;100410.13;3167721;28;20096;-74
2023/03/19 06:23:46;;;;;;;8.80;4.60;;;;;;;5.91;49.35;100406.59;3168419;28;20414;-74
2023/03/19 06:25:18;;;;;;;9.63;4.47;;;;;;;6.13;49.21;100418.31;3168465;28;20047;-74
2023/03/19 06:26:50;;;;;;;9.98;4.78;;;;;;;6.34;49.28;100409.34;3168661;28;20129;-75
2023/03/19 06:28:22;;;;;;;9.02;4.40;;;;;;;6.55;49.26;100409.81;3168353;28;20047;-74
2023/03/19 06:29:54;;;;;;;7.63;3.95;;;;;;;6.64;49.05;100385.50;3164233;28;20056;-74
2023/03/19 06:31:27;;;;;;;9.10;4.13;;;;;;;6.92;48.72;100393.56;3168071;28;20119;-73
2023/03/19 06:33:00;;;;;;;11.15;3.97;;;;;;;7.29;48.37;100401.41;3168390;28;20083;-74
2023/03/19 06:34:32;;;;;;;;;;;;;;;7.76;48.76;100412.41;3167856;28;20144;-74
2023/03/19 06:36:04;;;;;;;8.50;3.60;;;;;;;7.90;48.01;100389.59;3167669;28;19931;-74
2023/03/19 06:37:36;;;;;;;10.30;4.05;;;;;;;8.31;47.36;100372.13;3167062;28;20135;-74
2023/03/19 06:39:09;;;;;;;9.70;4.18;;;;;;;9.06;46.75;100405.56;3167572;28;20105;-73
2023/03/19 06:40:40;;;;;;;9.85;4.10;;;;;;;9.73;46.03;100410.44;3166926;28;20054;-71
2023/03/19 06:42:12;;;;;;;10.68;4.65;;;;;;;10.40;44.93;100397.81;3167318;28;20059;-73
2023/03/19 06:43:45;;;;;;;9.63;4.28;;;;;;;11.08;43.18;100400.56;3165826;28;20043;-73
2023/03/19 06:45:18;;;;;;;10.32;4.28;;;;;;;11.68;42.47;100377.38;3166816;28;20058;-73
2023/03/19 06:46:50;;;;;;;9.65;4.28;;;;;;;12.40;41.40;100387.47;3166213;28;20118;-73
2023/03/19 06:48:23;;;;;;;7.60;4.10;;;;;;;13.00;40.44;100390.88;3167523;28;20121;-73
2023/03/19 06:49:56;;;;;;;11.68;4.05;;;;;;;13.36;38.91;100374.41;3166720;28;20048;-73
2023/03/19 06:51:28;;;;;;;11.40;3.95;;;;;;;13.85;38.06;100383.34;3165254;28;20050;-73
2023/03/19 06:53:01;;;;;;;8.27;4.25;;;;;;;13.95;36.54;100375.03;3170081;28;20059;-74
2023/03/19 06:54:33;;;;;;;6.57;3.78;;;;;;;13.96;36.06;100364.50;3170488;28;20104;-73
2023/03/19 06:56:05;;;;;;;8.70;4.05;;;;;;;14.02;36.02;100364.19;3170078;28;20419;-73
2023/03/19 06:57:37;;;;;;;7.03;3.60;;;;;;;14.42;36.02;100388.34;3169649;28;20679;-75
2023/03/19 06:59:11;;;;;;;7.95;3.83;;;;;;;14.67;35.21;100373.97;3168792;28;20051;-74
2023/03/19 07:00:43;;;;;;;9.38;4.22;;;;;;;14.86;34.74;100379.94;3169774;28;20044;-71
2023/03/19 07:02:15;;;;;;;6.65;3.92;;;;;;;15.07;34.53;100384.97;3169326;28;20082;-71
2023/03/19 07:03:49;;;;;;;10.85;4.32;;;;;;;15.36;33.65;100381.59;3170756;28;20054;-75
2023/03/19 07:05:20;;;;;;;;;;;;;;;15.36;34.08;100376.34;3170988;28;20552;-77
2023/03/19 07:06:52;;;;;;;7.30;4.00;;;;;;;15.54;33.71;100379.69;3168782;28;19943;-76
2023/03/19 07:08:28;;;;;;;8.93;3.85;;;;;;;15.80;33.19;100369.53;3169888;28;20454;-75
2023/03/19 07:10:00;;;;;;;10.82;4.45;;;;;;;16.12;32.67;100370.28;3169393;28;20458;-71
2023/03/19 07:11:32;;;;;;;11.20;4.40;;;;;;;15.89;31.53;100372.47;3170797;28;20046;-72